Time;durP1;ratioP1;P1;durP2;ratioP2;P2;SDS_P1;SDS_P2;PMS_P1;PMS_P2;Temp;Humidity;BMP_temperature;BMP_pressure;BME280_temperature;BME280_humidity;BME280_pressure;Samples;Min_cycle;Max_cycle;Signal;HPM_P1;HPM_P2
2021/10/12 00:00:34;;;;;;;21.87;17.37;;;10.30;99.90;;;;;;5011919;28;20178;-66
2021/10/12 00:02:59;;;;;;;23.33;16.27;;;10.30;99.90;;;;;;5011900;28;20691;-66
2021/10/12 00:05:25;;;;;;;19.80;17.70;;;10.30;99.90;;;;;;5012052;28;20228;-66
2021/10/12 00:07:52;;;;;;;19.77;16.27;;;10.30;99.90;;;;;;5011971;28;20194;-66
2021/10/12 00:10:18;;;;;;;21.20;16.50;;;10.20;99.90;;;;;;5012258;28;20199;-66
2021/10/12 00:12:43;;;;;;;21.73;18.03;;;10.20;99.90;;;;;;5012294;28;20509;-66
2021/10/12 00:15:10;;;;;;;20.37;17.03;;;10.20;99.90;;;;;;5011935;28;20461;-66
2021/10/12 00:17:36;;;;;;;20.13;17.17;;;10.20;99.90;;;;;;5011458;28;20661;-66
2021/10/12 00:20:02;;;;;;;22.60;18.50;;;10.10;99.90;;;;;;5012230;28;20440;-66
2021/10/12 00:22:27;;;;;;;21.00;17.63;;;10.10;99.90;;;;;;5012123;28;20253;-66
2021/10/12 00:24:53;;;;;;;23.97;18.70;;;10.20;99.90;;;;;;5012227;28;20521;-66
2021/10/12 00:27:18;;;;;;;21.40;16.80;;;10.20;99.90;;;;;;5011581;28;20617;-66
2021/10/12 00:29:44;;;;;;;22.20;17.97;;;10.10;99.90;;;;;;5011905;28;20174;-66
2021/10/12 00:32:09;;;;;;;19.70;17.23;;;10.00;99.90;;;;;;5011979;28;20631;-66
2021/10/12 00:34:35;;;;;;;20.30;15.93;;;10.00;99.90;;;;;;5011979;28;20203;-66
2021/10/12 00:37:01;;;;;;;24.37;17.17;;;9.90;99.90;;;;;;4994524;28;20172;-66
2021/10/12 00:39:26;;;;;;;24.13;17.53;;;9.80;99.90;;;;;;5011551;28;20202;-66
2021/10/12 00:41:52;;;;;;;23.23;19.20;;;9.70;99.90;;;;;;5010626;28;20551;-66
2021/10/12 00:44:17;;;;;;;21.83;17.37;;;9.70;99.90;;;;;;5011716;28;20190;-66
2021/10/12 00:46:43;;;;;;;21.70;17.63;;;9.70;99.90;;;;;;5019343;28;20182;-66
2021/10/12 00:49:09;;;;;;;18.90;16.90;;;9.80;99.90;;;;;;5011421;28;20349;-66
2021/10/12 00:51:34;;;;;;;21.73;17.13;;;9.80;99.90;;;;;;5010588;28;20263;-66
2021/10/12 00:54:00;;;;;;;22.57;17.37;;;9.80;99.90;;;;;;4996727;28;20187;-66
2021/10/12 00:56:25;;;;;;;25.10;18.37;;;9.80;99.90;;;;;;5011498;28;20250;-66
2021/10/12 00:58:52;;;;;;;19.63;16.77;;;9.80;99.90;;;;;;5011325;28;20190;-66
2021/10/12 01:01:18;;;;;;;22.60;16.53;;;9.80;99.90;;;;;;5011158;28;20210;-66
2021/10/12 01:03:43;;;;;;;20.50;16.77;;;9.80;99.90;;;;;;5011445;28;20433;-66
2021/10/12 01:06:09;;;;;;;22.63;18.13;;;9.80;99.90;;;;;;5011590;28;20434;-66
2021/10/12 01:08:35;;;;;;;22.73;18.27;;;9.80;99.90;;;;;;5011423;28;20201;-66
2021/10/12 01:11:00;;;;;;;19.90;16.40;;;9.80;99.90;;;;;;5011626;28;20553;-66
2021/10/12 01:13:27;;;;;;;21.30;16.47;;;9.80;99.90;;;;;;5011394;28;20211;-66
2021/10/12 01:15:53;;;;;;;22.97;17.87;;;9.80;99.90;;;;;;5011721;28;20175;-66
2021/10/12 01:18:19;;;;;;;21.67;18.70;;;9.70;99.90;;;;;;5014972;28;20457;-66
2021/10/12 01:20:45;;;;;;;24.93;18.37;;;9.70;99.90;;;;;;5015290;28;20495;-66
2021/10/12 01:23:12;;;;;;;21.60;17.80;;;9.60;99.90;;;;;;5014830;28;20798;-66
2021/10/12 01:25:39;;;;;;;21.43;17.93;;;9.60;99.90;;;;;;4999919;28;20433;-66
2021/10/12 01:28:08;;;;;;;19.53;17.43;;;9.50;99.90;;;;;;5014898;28;20454;-66
2021/10/12 01:30:35;;;;;;;30.77;19.53;;;9.50;99.90;;;;;;5015019;28;20457;-66
2021/10/12 01:33:02;;;;;;;23.20;18.10;;;9.60;99.90;;;;;;5014686;28;20429;-66
2021/10/12 01:35:27;;;;;;;21.90;17.73;;;9.60;99.90;;;;;;5014566;28;20959;-66
2021/10/12 01:37:53;;;;;;;24.03;18.60;;;9.70;99.90;;;;;;5014465;28;20464;-66
2021/10/12 01:40:18;;;;;;;24.33;19.00;;;9.70;99.90;;;;;;5014809;28;20182;-66
2021/10/12 01:42:44;;;;;;;24.20;16.97;;;9.70;99.90;;;;;;5014803;28;20175;-66
2021/10/12 01:45:10;;;;;;;22.37;19.43;;;9.80;99.90;;;;;;5016061;28;20253;-66
2021/10/12 01:47:37;;;;;;;27.80;20.40;;;9.80;99.90;;;;;;5014038;28;20183;-66
2021/10/12 01:50:05;;;;;;;29.30;20.23;;;9.70;99.90;;;;;;5014546;28;20457;-66
2021/10/12 01:52:30;;;;;;;27.47;18.70;;;9.70;99.90;;;;;;5014729;28;20430;-66
2021/10/12 01:54:56;;;;;;;25.03;18.83;;;9.70;99.90;;;;;;5014745;28;20869;-66
2021/10/12 01:57:21;;;;;;;28.13;20.60;;;9.70;99.90;;;;;;5014026;28;20179;-66
2021/10/12 01:59:47;;;;;;;24.27;17.37;;;9.70;99.90;;;;;;5014601;28;20175;-66
2021/10/12 02:02:13;;;;;;;25.37;18.60;;;9.80;99.90;;;;;;5014052;28;20187;-66
2021/10/12 02:04:38;;;;;;;25.23;20.30;;;9.80;99.90;;;;;;5014131;28;20640;-66
2021/10/12 02:07:04;;;;;;;25.13;19.83;;;9.90;99.90;;;;;;5013881;28;20189;-66
2021/10/12 02:09:30;;;;;;;25.60;20.83;;;9.90;99.90;;;;;;5014089;28;20199;-66
2021/10/12 02:11:56;;;;;;;26.30;20.00;;;9.90;99.90;;;;;;5014378;28;20306;-66
2021/10/12 02:14:22;;;;;;;25.10;20.20;;;9.90;99.90;;;;;;5014130;28;20457;-66
2021/10/12 02:16:48;;;;;;;25.40;17.97;;;9.90;99.90;;;;;;5014135;28;20461;-66
2021/10/12 02:19:14;;;;;;;22.53;18.57;;;9.90;99.90;;;;;;5013904;28;20199;-66
2021/10/12 02:21:39;;;;;;;29.20;20.83;;;10.00;99.90;;;;;;5014228;28;20207;-66
2021/10/12 02:24:05;;;;;;;22.10;17.73;;;10.00;99.90;;;;;;5013806;28;20175;-66
2021/10/12 02:26:31;;;;;;;22.43;18.90;;;9.90;99.90;;;;;;5013986;28;20563;-66
2021/10/12 02:28:56;;;;;;;21.70;18.40;;;9.90;99.90;;;;;;5011101;28;20807;-66
2021/10/12 02:31:22;;;;;;;20.77;17.80;;;9.90;99.90;;;;;;5013934;28;20178;-66
2021/10/12 02:33:47;;;;;;;22.30;18.70;;;9.90;99.90;;;;;;5014218;28;20206;-66
2021/10/12 02:36:13;;;;;;;24.30;17.73;;;10.00;99.90;;;;;;5013674;28;20187;-66
2021/10/12 02:38:40;;;;;;;25.23;19.07;;;10.00;99.90;;;;;;5013448;28;20214;-66
2021/10/12 02:41:06;;;;;;;24.27;17.33;;;10.10;99.90;;;;;;5013802;28;20217;-66
2021/10/12 02:43:31;;;;;;;19.30;16.80;;;10.10;99.90;;;;;;5013750;28;20426;-66
2021/10/12 02:45:57;;;;;;;23.03;18.23;;;10.10;99.90;;;;;;5014959;28;20186;-66
2021/10/12 02:48:23;;;;;;;23.57;17.60;;;10.00;99.90;;;;;;5004094;28;20213;-66
2021/10/12 02:50:49;;;;;;;26.27;18.50;;;9.90;99.90;;;;;;5013466;28;20880;-66
2021/10/12 02:53:15;;;;;;;21.03;18.00;;;9.70;99.90;;;;;;5013053;28;20194;-66
2021/10/12 02:55:41;;;;;;;24.60;17.93;;;9.70;99.90;;;;;;5013368;28;20205;-66
2021/10/12 02:58:07;;;;;;;25.60;18.90;;;9.80;99.90;;;;;;5012735;28;20449;-66
2021/10/12 03:00:33;;;;;;;18.10;15.83;;;9.80;99.90;;;;;;5013127;28;20214;-66
2021/10/12 03:02:59;;;;;;;20.43;17.17;;;9.70;99.90;;;;;;5013233;28;20433;-66
2021/10/12 03:05:24;;;;;;;20.77;16.73;;;9.80;99.90;;;;;;5013092;28;20484;-66
2021/10/12 03:07:50;;;;;;;19.73;16.70;;;9.80;99.90;;;;;;5012862;28;20195;-66
2021/10/12 03:10:15;;;;;;;19.97;16.63;;;9.90;99.90;;;;;;5013040;28;20222;-66
2021/10/12 03:12:41;;;;;;;22.33;16.77;;;9.80;99.90;;;;;;5013101;28;20179;-66
2021/10/12 03:15:07;;;;;;;23.40;17.97;;;9.70;99.90;;;;;;5012797;28;20187;-66
2021/10/12 03:17:33;;;;;;;19.50;17.23;;;9.60;99.90;;;;;;5012543;28;20175;-66
2021/10/12 03:19:59;;;;;;;21.30;16.77;;;9.60;99.90;;;;;;5012915;28;20441;-66
2021/10/12 03:22:24;;;;;;;19.13;15.70;;;9.60;99.90;;;;;;5012831;28;20562;-66
2021/10/12 03:24:50;;;;;;;22.00;17.20;;;9.70;99.90;;;;;;5012907;28;20434;-66
2021/10/12 03:27:16;;;;;;;22.23;15.33;;;9.80;99.90;;;;;;5012526;28;20292;-66
2021/10/12 03:29:42;;;;;;;21.40;15.00;;;9.90;99.90;;;;;;5012481;28;20218;-66
2021/10/12 03:32:08;;;;;;;19.67;15.90;;;10.00;99.90;;;;;;5021110;28;20174;-66
2021/10/12 03:34:34;;;;;;;19.23;14.80;;;10.00;99.90;;;;;;5032828;28;20433;-66
2021/10/12 03:37:00;;;;;;;22.20;15.80;;;10.00;99.90;;;;;;5017343;28;21025;-66
2021/10/12 03:39:27;;;;;;;18.00;14.20;;;10.10;99.90;;;;;;5011543;28;20461;-66
2021/10/12 03:41:53;;;;;;;19.33;14.00;;;10.10;99.90;;;;;;5012667;28;20516;-66
2021/10/12 03:44:19;;;;;;;19.27;13.87;;;10.10;99.90;;;;;;5011305;28;21147;-66
2021/10/12 03:46:45;;;;;;;15.77;13.27;;;10.20;99.90;;;;;;5014236;28;20186;-66
2021/10/12 03:49:11;;;;;;;19.30;14.33;;;10.20;99.90;;;;;;5011883;28;20500;-66
2021/10/12 03:51:37;;;;;;;17.00;13.33;;;10.10;99.90;;;;;;5012503;28;20610;-66
2021/10/12 03:54:03;;;;;;;17.43;13.90;;;10.00;99.90;;;;;;5012553;28;20201;-66
2021/10/12 03:56:29;;;;;;;20.03;14.00;;;10.10;99.90;;;;;;5012507;28;20858;-66
2021/10/12 03:58:54;;;;;;;20.30;16.07;;;10.10;99.90;;;;;;5011876;28;20691;-66
2021/10/12 04:01:21;;;;;;;21.70;15.33;;;9.90;99.90;;;;;;5012023;28;20500;-66
2021/10/12 04:03:48;;;;;;;15.23;13.40;;;9.80;99.90;;;;;;5012528;28;20183;-66
2021/10/12 04:06:14;;;;;;;18.73;15.17;;;9.80;99.90;;;;;;5012323;28;20434;-66
2021/10/12 04:08:40;;;;;;;18.97;16.13;;;9.80;99.90;;;;;;5012041;28;20463;-66
2021/10/12 04:11:05;;;;;;;19.33;15.30;;;9.80;99.90;;;;;;5012057;28;20515;-66
2021/10/12 04:13:31;;;;;;;18.17;14.90;;;9.80;99.90;;;;;;5012078;28;20289;-66
2021/10/12 04:15:56;;;;;;;17.90;14.17;;;9.80;99.90;;;;;;5011983;28;20313;-66
2021/10/12 04:18:22;;;;;;;16.03;12.93;;;9.90;99.90;;;;;;5011759;28;20206;-66
2021/10/12 04:20:47;;;;;;;17.10;13.63;;;9.90;99.90;;;;;;5012119;28;20202;-66
2021/10/12 04:23:13;;;;;;;19.17;13.67;;;9.90;99.90;;;;;;5011654;28;20183;-66
2021/10/12 04:25:40;;;;;;;16.37;12.27;;;10.00;99.90;;;;;;5011562;28;20214;-66
2021/10/12 04:28:11;;;;;;;21.03;13.23;;;10.10;99.90;;;;;;5011540;28;20454;-66
2021/10/12 04:30:38;;;;;;;18.10;12.90;;;10.20;99.90;;;;;;5011972;28;20452;-66
2021/10/12 04:33:03;;;;;;;14.40;12.90;;;10.10;99.90;;;;;;5012035;28;20448;-66
2021/10/12 04:35:29;;;;;;;14.50;12.43;;;10.10;99.90;;;;;;5011819;28;20445;-66
2021/10/12 04:37:54;;;;;;;14.83;12.63;;;10.00;99.90;;;;;;5011554;28;20217;-66
2021/10/12 04:40:20;;;;;;;17.27;14.20;;;9.90;99.90;;;;;;5011687;28;20179;-66
2021/10/12 04:42:45;;;;;;;21.47;14.20;;;10.00;99.90;;;;;;5012070;28;20564;-66
2021/10/12 04:45:11;;;;;;;15.47;12.90;;;10.10;99.90;;;;;;5013646;28;20225;-66
2021/10/12 04:47:39;;;;;;;14.40;12.37;;;10.20;99.90;;;;;;5011721;28;20210;-66
2021/10/12 04:50:05;;;;;;;17.23;12.30;;;10.20;99.90;;;;;;5011538;28;20233;-66
2021/10/12 04:52:31;;;;;;;16.23;14.00;;;10.30;99.90;;;;;;5014707;28;20473;-65
2021/10/12 04:54:57;;;;;;;21.17;15.07;;;10.30;99.90;;;;;;5015725;28;20469;-65
2021/10/12 04:57:22;;;;;;;15.13;12.83;;;10.20;99.90;;;;;;4997874;28;20516;-65
2021/10/12 04:59:48;;;;;;;17.53;13.17;;;10.30;99.90;;;;;;5015496;28;20253;-65
2021/10/12 05:02:13;;;;;;;18.47;13.93;;;10.30;99.90;;;;;;5015550;28;20210;-65
2021/10/12 05:04:39;;;;;;;16.67;14.17;;;10.30;99.90;;;;;;5015579;28;20182;-65
2021/10/12 05:07:04;;;;;;;17.90;14.47;;;10.30;99.90;;;;;;5015524;28;20183;-65
2021/10/12 05:09:30;;;;;;;22.33;15.53;;;10.20;99.90;;;;;;5015308;28;20194;-65
2021/10/12 05:11:55;;;;;;;18.87;15.70;;;10.20;99.90;;;;;;5008356;28;20183;-65
2021/10/12 05:14:21;;;;;;;19.37;14.90;;;10.10;99.90;;;;;;5008636;28;20183;-65
2021/10/12 05:16:49;;;;;;;19.57;14.80;;;10.20;99.90;;;;;;5015345;28;20179;-64
2021/10/12 05:19:15;;;;;;;19.57;15.27;;;10.10;99.90;;;;;;5014731;28;20248;-65
2021/10/12 05:21:40;;;;;;;16.83;15.00;;;9.90;99.90;;;;;;5015016;28;20457;-64
2021/10/12 05:24:06;;;;;;;20.77;16.53;;;10.00;99.90;;;;;;5015111;28;20195;-65
2021/10/12 05:26:32;;;;;;;18.10;15.23;;;10.00;99.90;;;;;;5014928;28;20191;-66
2021/10/12 05:28:57;;;;;;;18.60;15.13;;;10.10;99.90;;;;;;5014626;28;20481;-66
2021/10/12 05:31:23;;;;;;;18.50;15.53;;;10.10;99.90;;;;;;5015249;28;20191;-65
2021/10/12 05:33:49;;;;;;;18.90;15.17;;;10.10;99.90;;;;;;5014906;28;20187;-65
2021/10/12 05:36:15;;;;;;;16.80;13.53;;;10.10;99.90;;;;;;5014848;28;20239;-65
2021/10/12 05:38:41;;;;;;;17.37;14.80;;;10.00;99.90;;;;;;5014447;28;20506;-66
2021/10/12 05:41:08;;;;;;;17.57;13.33;;;9.90;99.90;;;;;;5014631;28;20283;-66
2021/10/12 05:43:34;;;;;;;18.83;15.00;;;10.00;99.90;;;;;;5019216;28;20440;-65
2021/10/12 05:45:59;;;;;;;15.27;12.80;;;10.00;99.90;;;;;;5019364;28;20430;-65
2021/10/12 05:48:25;;;;;;;21.43;16.27;;;10.00;99.90;;;;;;5015118;28;20291;-65
2021/10/12 05:50:51;;;;;;;16.27;14.57;;;10.10;99.90;;;;;;5016890;28;20222;-65
2021/10/12 05:56:16;;;;;;;15.13;13.20;;;10.10;99.90;;;;;;5003139;28;20618;-65
2021/10/12 06:01:08;;;;;;;20.67;16.10;;;9.90;99.90;;;;;;5013581;28;20552;-65
2021/10/12 06:03:33;;;;;;;21.93;15.90;;;9.80;99.90;;;;;;5013517;28;20214;-65
2021/10/12 06:06:00;;;;;;;25.07;17.87;;;9.70;99.90;;;;;;5013563;28;20183;-67
2021/10/12 06:08:25;;;;;;;19.93;16.37;;;9.70;99.90;;;;;;5010698;28;20195;-65
2021/10/12 06:10:51;;;;;;;16.13;14.23;;;9.80;99.90;;;;;;5014481;28;20944;-65
2021/10/12 06:13:17;;;;;;;22.63;15.80;;;9.90;99.90;;;;;;5012882;28;20268;-65
2021/10/12 06:15:44;;;;;;;19.10;15.07;;;9.80;99.90;;;;;;5013569;28;20280;-65
2021/10/12 06:18:10;;;;;;;20.00;15.60;;;9.80;99.90;;;;;;5013631;28;20492;-66
2021/10/12 06:20:36;;;;;;;20.03;15.70;;;9.80;99.90;;;;;;5007702;28;20462;-65
2021/10/12 06:23:02;;;;;;;19.27;16.17;;;9.70;99.90;;;;;;5013263;28;20444;-65
2021/10/12 06:25:28;;;;;;;23.80;17.00;;;9.70;99.90;;;;;;5011709;28;20437;-65
2021/10/12 06:27:53;;;;;;;18.20;16.10;;;9.80;99.90;;;;;;5012064;28;20475;-65
2021/10/12 06:30:19;;;;;;;20.93;17.30;;;9.90;99.90;;;;;;5013225;28;20943;-64
2021/10/12 06:32:45;;;;;;;19.00;15.93;;;9.90;99.90;;;;;;5013066;28;20171;-65
2021/10/12 06:35:10;;;;;;;20.77;16.87;;;10.00;99.90;;;;;;5013515;28;20245;-65
2021/10/12 06:37:36;;;;;;;23.63;19.97;;;10.00;99.90;;;;;;5012689;28;20218;-66
2021/10/12 06:40:02;;;;;;;20.20;16.60;;;10.00;99.90;;;;;;5013004;28;20187;-66
2021/10/12 06:42:28;;;;;;;18.57;16.30;;;10.10;99.90;;;;;;5012690;28;20547;-67
2021/10/12 06:44:53;;;;;;;21.93;16.70;;;10.00;99.90;;;;;;5012995;28;20437;-65
2021/10/12 06:47:19;;;;;;;19.50;16.53;;;10.00;99.90;;;;;;5012694;28;20528;-68
2021/10/12 06:49:45;;;;;;;21.00;15.30;;;9.90;99.90;;;;;;5013050;28;20201;-65
2021/10/12 06:52:10;;;;;;;21.90;16.57;;;9.90;99.90;;;;;;5013178;28;20184;-65
2021/10/12 06:54:36;;;;;;;21.70;15.43;;;10.00;99.90;;;;;;5012872;28;20955;-65
2021/10/12 06:57:08;;;;;;;22.57;16.97;;;10.00;99.90;;;;;;5010074;28;20193;-65
2021/10/12 06:59:33;;;;;;;20.90;14.40;;;10.00;99.90;;;;;;5008869;28;20199;-66
2021/10/12 07:01:59;;;;;;;18.07;14.30;;;10.10;99.90;;;;;;5012372;28;20477;-65
2021/10/12 07:04:24;;;;;;;18.57;14.73;;;10.20;99.90;;;;;;5003736;28;20178;-65
2021/10/12 07:06:50;;;;;;;19.03;13.57;;;10.20;99.90;;;;;;5012274;28;20524;-66
2021/10/12 07:09:16;;;;;;;17.80;13.60;;;10.30;99.90;;;;;;5012804;28;20199;-65
2021/10/12 07:11:42;;;;;;;22.33;18.07;;;10.30;99.90;;;;;;5012364;28;20225;-65
2021/10/12 07:14:08;;;;;;;19.47;14.43;;;10.20;99.90;;;;;;5012093;28;20430;-65
2021/10/12 07:16:33;;;;;;;18.20;14.57;;;10.20;99.90;;;;;;5012463;28;20648;-65
2021/10/12 07:18:59;;;;;;;15.87;12.60;;;10.20;99.90;;;;;;5012265;28;20265;-65
2021/10/12 07:21:25;;;;;;;17.30;13.50;;;10.20;99.90;;;;;;5012317;28;20214;-65
2021/10/12 07:23:51;;;;;;;19.07;14.13;;;10.20;99.90;;;;;;5012790;28;20221;-65
2021/10/12 07:26:17;;;;;;;17.23;14.00;;;10.20;99.90;;;;;;5012762;28;20518;-65
2021/10/12 07:28:43;;;;;;;17.03;12.80;;;10.20;99.90;;;;;;5012254;28;20446;-65
2021/10/12 07:31:09;;;;;;;17.43;12.13;;;10.30;99.90;;;;;;5011704;28;20321;-67
2021/10/12 07:33:34;;;;;;;12.67;11.40;;;10.20;99.90;;;;;;5012619;28;20270;-66
2021/10/12 07:36:00;;;;;;;15.73;12.10;;;10.20;99.90;;;;;;5012435;28;20541;-65
2021/10/12 07:38:26;;;;;;;15.13;11.17;;;10.30;99.90;;;;;;5012121;28;20218;-66
2021/10/12 07:40:52;;;;;;;14.83;12.10;;;10.30;99.90;;;;;;5012164;28;20195;-65
2021/10/12 07:43:17;;;;;;;17.57;13.00;;;10.30;99.90;;;;;;5012034;28;20428;-67
2021/10/12 07:45:43;;;;;;;14.33;10.80;;;10.20;99.90;;;;;;5012340;28;20282;-65
2021/10/12 07:48:09;;;;;;;12.17;10.87;;;10.20;99.90;;;;;;5011942;28;20199;-65
2021/10/12 07:50:35;;;;;;;12.17;10.97;;;10.20;99.90;;;;;;5012165;28;20210;-66
2021/10/12 07:53:00;;;;;;;14.53;11.10;;;10.20;99.90;;;;;;5012079;28;20637;-65
2021/10/12 07:57:51;;;;;;;13.53;11.37;;;10.20;99.90;;;;;;5011737;28;20191;-65
2021/10/12 08:00:17;;;;;;;13.83;11.00;;;10.10;99.90;;;;;;5011023;28;20266;-65
2021/10/12 08:02:42;;;;;;;12.37;10.03;;;10.20;99.90;;;;;;5011860;28;20182;-65
2021/10/12 08:05:08;;;;;;;14.23;10.80;;;10.40;99.90;;;;;;5012020;28;20178;-66
2021/10/12 08:07:33;;;;;;;14.73;10.30;;;10.40;99.90;;;;;;5011345;28;20209;-65
2021/10/12 08:09:59;;;;;;;11.03;9.03;;;10.50;99.90;;;;;;5011624;28;20183;-65
2021/10/12 08:12:25;;;;;;;10.07;9.00;;;10.50;99.90;;;;;;5011852;28;20178;-66
2021/10/12 08:14:58;;;;;;;11.97;8.53;;;10.60;99.90;;;;;;5011813;28;20189;-65
2021/10/12 08:17:23;;;;;;;10.57;9.43;;;10.80;99.90;;;;;;5011134;28;20430;-66
2021/10/12 08:19:49;;;;;;;12.63;9.60;;;10.80;99.90;;;;;;5011769;28;20513;-67
2021/10/12 08:22:15;;;;;;;9.67;8.63;;;10.80;99.90;;;;;;5011073;28;20210;-65
2021/10/12 08:24:41;;;;;;;12.80;9.43;;;10.80;99.90;;;;;;5011562;28;20430;-65
2021/10/12 08:27:06;;;;;;;9.67;8.77;;;11.00;99.90;;;;;;5010188;28;20189;-65
2021/10/12 08:29:32;;;;;;;11.50;7.73;;;11.20;99.90;;;;;;5010865;28;21891;-66
2021/10/12 08:31:58;;;;;;;7.90;7.10;;;11.30;99.90;;;;;;5010950;28;20190;-66
2021/10/12 08:34:23;;;;;;;8.27;7.40;;;11.40;99.90;;;;;;5010936;28;20236;-66
2021/10/12 08:36:49;;;;;;;8.20;7.40;;;11.60;99.90;;;;;;5010977;28;20177;-67
2021/10/12 08:39:14;;;;;;;9.23;8.00;;;11.60;99.90;;;;;;5007614;28;20688;-66
2021/10/12 08:42:11;;;;;;;9.33;8.43;;;11.80;99.90;;;;;;5011452;28;20199;-66
2021/10/12 08:45:00;;;;;;;9.67;7.10;;;11.90;99.90;;;;;;5011248;28;20254;-65
2021/10/12 08:47:27;;;;;;;9.40;7.43;;;12.20;99.90;;;;;;5004045;28;20422;-65
2021/10/12 08:49:54;;;;;;;10.97;8.37;;;12.30;99.90;;;;;;5010486;28;20516;-65
2021/10/12 08:52:20;;;;;;;9.83;8.83;;;12.30;99.90;;;;;;5010396;28;20432;-66
2021/10/12 08:54:48;;;;;;;9.43;7.70;;;12.40;99.90;;;;;;5004525;28;20524;-66
2021/10/12 08:57:27;;;;;;;10.20;8.23;;;12.70;99.90;;;;;;5002569;28;20437;-66
2021/10/12 08:59:54;;;;;;;10.13;8.03;;;12.70;99.90;;;;;;5011399;28;20953;-65
2021/10/12 09:02:23;;;;;;;10.80;8.27;;;12.90;99.90;;;;;;5010188;28;20462;-65
2021/10/12 09:04:48;;;;;;;10.03;8.27;;;13.00;99.90;;;;;;5011301;28;20422;-65
2021/10/12 09:07:26;;;;;;;12.40;6.87;;;13.00;99.90;;;;;;5010935;28;20443;-66
2021/10/12 09:09:55;;;;;;;14.27;7.23;;;13.00;99.90;;;;;;5010629;28;20641;-66
2021/10/12 09:12:40;;;;;;;8.07;7.10;;;12.90;99.90;;;;;;5009177;28;20430;-65
2021/10/12 09:15:06;;;;;;;7.70;6.87;;;12.90;99.90;;;;;;5010293;28;20518;-65
2021/10/12 09:17:37;;;;;;;10.27;8.90;;;12.90;99.90;;;;;;5010490;28;20528;-66
2021/10/12 09:20:10;;;;;;;7.30;6.57;;;12.70;99.90;;;;;;5010856;28;20903;-67
2021/10/12 09:22:36;;;;;;;8.07;6.13;;;12.90;99.90;;;;;;5011406;28;20917;-65
2021/10/12 09:25:07;;;;;;;8.60;7.10;;;12.90;99.90;;;;;;5011298;28;20530;-66
2021/10/12 09:27:54;;;;;;;9.50;6.90;;;12.60;99.90;;;;;;5009902;28;20178;-65
2021/10/12 09:30:27;;;;;;;9.30;7.67;;;12.50;99.90;;;;;;5011378;28;20513;-65
2021/10/12 09:32:58;;;;;;;10.00;7.67;;;12.80;99.90;;;;;;5011080;28;20465;-66
2021/10/12 09:35:28;;;;;;;15.43;7.03;;;12.70;99.90;;;;;;5010987;28;20441;-65
2021/10/12 09:38:21;;;;;;;8.63;6.10;;;12.80;99.90;;;;;;5011979;28;20472;-67
2021/10/12 09:40:47;;;;;;;6.63;5.97;;;12.70;99.90;;;;;;5009646;28;20461;-66
2021/10/12 09:43:17;;;;;;;6.80;6.00;;;13.00;99.90;;;;;;5014402;28;20432;-66
2021/10/12 09:45:44;;;;;;;5.80;5.23;;;13.00;99.90;;;;;;5014330;28;20978;-65
2021/10/12 09:48:27;;;;;;;7.57;5.10;;;13.10;99.90;;;;;;5013391;28;20456;-66
2021/10/12 09:51:07;;;;;;;7.83;7.03;;;13.00;99.90;;;;;;5009159;28;20511;-66
2021/10/12 09:53:33;;;;;;;10.87;7.67;;;12.80;99.90;;;;;;5013694;28;20789;-65
2021/10/12 09:55:59;;;;;;;9.10;7.37;;;12.70;99.90;;;;;;5013951;28;20438;-65
2021/10/12 09:58:29;;;;;;;8.23;7.37;;;12.80;99.90;;;;;;5013439;28;20663;-66
2021/10/12 10:00:55;;;;;;;10.93;8.43;;;12.70;99.90;;;;;;5010863;28;20489;-67
2021/10/12 10:03:20;;;;;;;10.30;9.33;;;12.70;99.90;;;;;;5013944;28;20461;-67
2021/10/12 10:05:47;;;;;;;13.13;8.00;;;12.40;99.90;;;;;;5013942;28;20421;-65
2021/10/12 10:08:12;;;;;;;9.90;8.17;;;12.30;99.90;;;;;;5013889;28;20210;-65
2021/10/12 10:10:39;;;;;;;9.93;8.93;;;12.40;99.90;;;;;;5014239;28;20434;-66
2021/10/12 10:13:05;;;;;;;7.70;6.90;;;12.40;99.90;;;;;;5013918;28;20183;-67
2021/10/12 10:15:31;;;;;;;8.93;7.60;;;12.30;99.90;;;;;;5010920;28;20438;-66
2021/10/12 10:17:57;;;;;;;12.13;8.77;;;12.30;99.90;;;;;;5013797;28;20975;-66
2021/10/12 10:20:24;;;;;;;11.97;10.50;;;12.30;99.90;;;;;;5013567;28;20190;-66
2021/10/12 10:22:52;;;;;;;33.47;21.73;;;12.30;99.90;;;;;;5013783;28;20502;-65
2021/10/12 10:25:30;;;;;;;12.47;8.80;;;12.40;99.90;;;;;;5013701;28;20426;-66
2021/10/12 10:27:58;;;;;;;11.43;6.80;;;12.50;99.90;;;;;;5013626;28;20460;-66
2021/10/12 10:30:30;;;;;;;12.17;8.60;;;12.70;99.90;;;;;;5011402;28;20524;-66
2021/10/12 10:33:05;;;;;;;14.23;8.67;;;12.90;99.90;;;;;;5013961;28;20434;-66
2021/10/12 10:35:47;;;;;;;10.93;7.00;;;13.10;99.90;;;;;;5013151;28;20429;-66
2021/10/12 10:38:21;;;;;;;6.77;5.73;;;13.10;99.90;;;;;;5011983;28;20555;-66
2021/10/12 10:40:49;;;;;;;7.80;7.10;;;13.20;99.90;;;;;;5010205;28;20460;-67
2021/10/12 10:43:14;;;;;;;8.70;6.20;;;13.80;99.90;;;;;;5013493;28;20449;-69
2021/10/12 10:45:42;;;;;;;6.97;6.27;;;14.40;99.90;;;;;;5012791;28;20795;-67
2021/10/12 10:48:14;;;;;;;6.70;6.10;;;15.20;99.90;;;;;;5012604;28;20623;-66
2021/10/12 10:50:39;;;;;;;6.90;6.20;;;15.40;99.90;;;;;;5012191;28;21147;-66
2021/10/12 10:53:09;;;;;;;5.90;5.30;;;15.50;99.90;;;;;;5013430;28;20429;-66
2021/10/12 10:55:41;;;;;;;7.37;6.13;;;15.50;99.90;;;;;;5012355;28;20448;-65
2021/10/12 10:58:16;;;;;;;8.13;6.00;;;15.30;99.90;;;;;;5012268;28;20897;-65
2021/10/12 11:00:49;;;;;;;6.17;5.30;;;15.60;99.90;;;;;;5009904;28;20453;-67
2021/10/12 11:03:36;;;;;;;6.60;6.00;;;15.60;99.90;;;;;;5012606;28;20430;-65
2021/10/12 11:06:20;;;;;;;6.10;5.50;;;15.10;99.90;;;;;;5012686;28;20488;-65
2021/10/12 11:09:00;;;;;;;5.57;5.00;;;14.90;99.90;;;;;;5013232;28;20518;-66
2021/10/12 11:11:31;;;;;;;7.53;5.80;;;14.20;99.90;;;;;;5012729;28;20425;-67
2021/10/12 11:13:59;;;;;;;8.67;7.77;;;14.00;99.90;;;;;;5012827;28;20442;-64
2021/10/12 11:16:33;;;;;;;12.10;8.13;;;13.80;99.90;;;;;;5012819;28;21113;-66
2021/10/12 11:19:00;;;;;;;11.83;6.70;;;13.50;99.90;;;;;;5012302;28;20468;-67
2021/10/12 11:21:26;;;;;;;7.67;6.37;;;13.40;99.90;;;;;;5012527;28;20461;-65
2021/10/12 11:23:57;;;;;;;8.53;5.87;;;13.20;99.90;;;;;;5012455;28;20445;-65
2021/10/12 11:26:25;;;;;;;8.07;6.30;;;13.20;99.90;;;;;;5012810;28;20468;-66
2021/10/12 11:28:53;;;;;;;8.50;6.50;;;13.20;99.90;;;;;;5012215;28;20449;-66
2021/10/12 11:31:20;;;;;;;8.00;6.10;;;13.00;99.90;;;;;;5012269;28;20433;-67
2021/10/12 11:33:49;;;;;;;9.97;6.47;;;12.80;99.90;;;;;;5012325;28;20434;-66
2021/10/12 11:36:17;;;;;;;12.23;7.10;;;12.80;99.90;;;;;;5012689;28;20441;-66
2021/10/12 11:38:53;;;;;;;9.20;6.90;;;12.80;99.90;;;;;;5012302;28;20469;-66
2021/10/12 11:41:21;;;;;;;11.63;8.60;;;12.70;99.90;;;;;;5012236;28;20457;-66
2021/10/12 11:43:49;;;;;;;10.47;7.33;;;12.50;99.90;;;;;;5012441;28;20441;-67
2021/10/12 11:46:32;;;;;;;7.57;6.27;;;12.40;99.90;;;;;;5011748;28;20430;-65
2021/10/12 11:49:10;;;;;;;8.37;5.70;;;12.20;99.90;;;;;;5008318;28;20890;-66
2021/10/12 11:51:38;;;;;;;10.30;6.83;;;12.00;99.90;;;;;;5012105;28;20434;-66
2021/10/12 11:54:04;;;;;;;9.70;7.20;;;12.00;99.90;;;;;;5011522;28;20831;-66
2021/10/12 11:56:33;;;;;;;10.00;5.90;;;12.40;99.90;;;;;;5012164;28;20433;-66
2021/10/12 11:58:59;;;;;;;7.10;5.67;;;13.00;99.90;;;;;;5011475;28;20508;-65
2021/10/12 12:01:34;;;;;;;10.30;6.13;;;13.70;99.90;;;;;;5010997;28;20469;-65
2021/10/12 12:04:00;;;;;;;9.23;6.23;;;14.30;99.90;;;;;;5011691;28;20425;-66
2021/10/12 12:06:29;;;;;;;7.30;6.70;;;14.80;99.90;;;;;;5012120;28;20465;-65
2021/10/12 12:08:57;;;;;;;5.70;5.20;;;15.50;99.90;;;;;;5011852;28;21041;-64
2021/10/12 12:11:25;;;;;;;5.50;4.57;;;16.20;99.90;;;;;;5011832;28;20440;-65
2021/10/12 12:13:52;;;;;;;5.40;4.83;;;16.30;99.90;;;;;;5011728;28;20444;-68
2021/10/12 12:16:19;;;;;;;5.20;4.50;;;16.30;99.90;;;;;;5011333;28;20465;-65
2021/10/12 12:18:45;;;;;;;5.60;5.10;;;16.60;99.90;;;;;;5010191;28;20515;-68
2021/10/12 12:21:11;;;;;;;7.43;5.40;;;16.80;99.90;;;;;;5007164;28;20469;-65
2021/10/12 12:23:39;;;;;;;5.60;4.87;;;17.30;99.90;;;;;;5011748;28;20440;-66
2021/10/12 12:26:07;;;;;;;6.23;5.70;;;17.50;99.90;;;;;;5001628;28;20185;-65
2021/10/12 12:28:33;;;;;;;9.63;5.70;;;16.20;99.90;;;;;;5011428;28;20449;-64
2021/10/12 12:30:59;;;;;;;7.20;6.07;;;15.90;99.90;;;;;;5011652;28;20841;-65
2021/10/12 12:33:25;;;;;;;6.27;5.77;;;16.00;99.90;;;;;;5011362;28;20426;-65
2021/10/12 12:35:53;;;;;;;9.80;5.40;;;16.10;99.90;;;;;;5011250;28;20175;-67
2021/10/12 12:38:26;;;;;;;5.60;5.10;;;16.80;99.90;;;;;;5011116;28;20214;-65
2021/10/12 12:40:52;;;;;;;5.87;5.37;;;17.40;99.90;;;;;;5010269;28;20946;-65
2021/10/12 12:43:28;;;;;;;9.77;4.87;;;18.60;99.90;;;;;;5011058;28;20422;-65